sensor_id;sensor_type;location;lat;lon;timestamp;temperature;humidity
18287;DHT22;9269;50.838;12.094;2022-11-20T00:01:37;0.10;44.70
18287;DHT22;9269;50.838;12.094;2022-11-20T00:04:06;0.00;44.70
18287;DHT22;9269;50.838;12.094;2022-11-20T00:06:34;0.00;44.30
18287;DHT22;9269;50.838;12.094;2022-11-20T00:09:03;0.00;44.70
18287;DHT22;9269;50.838;12.094;2022-11-20T00:11:32;0.00;44.50
18287;DHT22;9269;50.838;12.094;2022-11-20T00:14:01;0.00;44.30
18287;DHT22;9269;50.838;12.094;2022-11-20T00:16:32;0.00;44.10
18287;DHT22;9269;50.838;12.094;2022-11-20T00:19:01;0.00;44.40
18287;DHT22;9269;50.838;12.094;2022-11-20T00:21:30;0.10;44.00
18287;DHT22;9269;50.838;12.094;2022-11-20T00:23:58;0.00;44.50
18287;DHT22;9269;50.838;12.094;2022-11-20T00:26:28;0.00;44.30
18287;DHT22;9269;50.838;12.094;2022-11-20T00:28:58;-3276.70;44.20
18287;DHT22;9269;50.838;12.094;2022-11-20T00:31:28;0.00;44.00
18287;DHT22;9269;50.838;12.094;2022-11-20T00:33:58;-3276.70;44.40
18287;DHT22;9269;50.838;12.094;2022-11-20T00:36:28;0.00;44.00
18287;DHT22;9269;50.838;12.094;2022-11-20T00:38:59;-3276.50;43.90
18287;DHT22;9269;50.838;12.094;2022-11-20T00:41:29;-3276.70;44.10
18287;DHT22;9269;50.838;12.094;2022-11-20T00:43:57;-3276.60;44.10
18287;DHT22;9269;50.838;12.094;2022-11-20T00:46:27;-3276.70;44.00
18287;DHT22;9269;50.838;12.094;2022-11-20T00:48:56;-3276.70;44.00
18287;DHT22;9269;50.838;12.094;2022-11-20T00:51:27;-3276.70;44.20
18287;DHT22;9269;50.838;12.094;2022-11-20T00:53:56;-3276.70;44.20
18287;DHT22;9269;50.838;12.094;2022-11-20T00:56:25;-3276.70;43.80
18287;DHT22;9269;50.838;12.094;2022-11-20T00:58:54;-3276.50;44.10
18287;DHT22;9269;50.838;12.094;2022-11-20T01:01:24;-3276.60;44.00
18287;DHT22;9269;50.838;12.094;2022-11-20T01:03:56;0.00;44.00
18287;DHT22;9269;50.838;12.094;2022-11-20T01:06:28;0.00;44.20
18287;DHT22;9269;50.838;12.094;2022-11-20T01:08:58;-3276.60;43.90
18287;DHT22;9269;50.838;12.094;2022-11-20T01:11:29;-3276.50;44.00
18287;DHT22;9269;50.838;12.094;2022-11-20T01:13:59;0.00;44.20
18287;DHT22;9269;50.838;12.094;2022-11-20T01:16:30;-3276.60;43.80
18287;DHT22;9269;50.838;12.094;2022-11-20T01:19:01;-3276.60;43.90
18287;DHT22;9269;50.838;12.094;2022-11-20T01:21:33;-3276.70;44.10
18287;DHT22;9269;50.838;12.094;2022-11-20T01:24:03;-3276.50;44.00
18287;DHT22;9269;50.838;12.094;2022-11-20T01:26:33;-3276.50;44.10
18287;DHT22;9269;50.838;12.094;2022-11-20T01:29:03;-3276.50;43.90
18287;DHT22;9269;50.838;12.094;2022-11-20T01:31:34;-3276.70;43.90
18287;DHT22;9269;50.838;12.094;2022-11-20T01:34:05;-3276.50;44.00
18287;DHT22;9269;50.838;12.094;2022-11-20T01:36:37;-3276.40;43.90
18287;DHT22;9269;50.838;12.094;2022-11-20T01:39:07;-3276.50;43.90
18287;DHT22;9269;50.838;12.094;2022-11-20T01:41:38;-3276.40;44.00
18287;DHT22;9269;50.838;12.094;2022-11-20T01:44:48;-3276.50;43.90
18287;DHT22;9269;50.838;12.094;2022-11-20T01:47:20;-3276.30;44.00
18287;DHT22;9269;50.838;12.094;2022-11-20T01:49:53;-3276.40;43.90
18287;DHT22;9269;50.838;12.094;2022-11-20T01:52:27;-3276.50;44.00
18287;DHT22;9269;50.838;12.094;2022-11-20T01:55:00;-3276.40;43.60
18287;DHT22;9269;50.838;12.094;2022-11-20T01:57:32;-3276.20;43.60
18287;DHT22;9269;50.838;12.094;2022-11-20T02:00:06;-3276.40;43.70
18287;DHT22;9269;50.838;12.094;2022-11-20T02:02:35;-3276.30;43.80
18287;DHT22;9269;50.838;12.094;2022-11-20T02:05:11;-3276.50;43.70
18287;DHT22;9269;50.838;12.094;2022-11-20T02:07:44;-3276.50;43.80
18287;DHT22;9269;50.838;12.094;2022-11-20T02:10:14;-3276.40;43.40
18287;DHT22;9269;50.838;12.094;2022-11-20T02:12:42;-3276.30;43.30
18287;DHT22;9269;50.838;12.094;2022-11-20T02:15:29;-3276.30;43.80
18287;DHT22;9269;50.838;12.094;2022-11-20T02:17:57;-3276.30;43.40
18287;DHT22;9269;50.838;12.094;2022-11-20T02:20:26;-3276.30;43.60
18287;DHT22;9269;50.838;12.094;2022-11-20T02:22:59;-3276.30;43.50
18287;DHT22;9269;50.838;12.094;2022-11-20T02:25:31;-3276.40;43.30
18287;DHT22;9269;50.838;12.094;2022-11-20T02:28:02;-3276.40;43.30
18287;DHT22;9269;50.838;12.094;2022-11-20T02:30:30;-3276.20;43.50
18287;DHT22;9269;50.838;12.094;2022-11-20T02:32:59;-3276.30;43.30
18287;DHT22;9269;50.838;12.094;2022-11-20T02:35:42;-3276.40;43.70
18287;DHT22;9269;50.838;12.094;2022-11-20T02:38:11;-3276.30;43.30
18287;DHT22;9269;50.838;12.094;2022-11-20T02:40:42;-3276.30;43.40
18287;DHT22;9269;50.838;12.094;2022-11-20T02:43:11;-3276.10;43.30
18287;DHT22;9269;50.838;12.094;2022-11-20T02:45:39;-3276.20;43.40
18287;DHT22;9269;50.838;12.094;2022-11-20T02:48:08;-3276.20;43.70
18287;DHT22;9269;50.838;12.094;2022-11-20T02:50:37;-3276.20;43.20
18287;DHT22;9269;50.838;12.094;2022-11-20T02:53:06;-3276.30;43.50
18287;DHT22;9269;50.838;12.094;2022-11-20T02:55:35;-3276.20;43.60
18287;DHT22;9269;50.838;12.094;2022-11-20T02:58:05;-3276.40;43.40
18287;DHT22;9269;50.838;12.094;2022-11-20T03:00:34;-3276.20;43.60
18287;DHT22;9269;50.838;12.094;2022-11-20T03:03:02;-3276.10;43.60
18287;DHT22;9269;50.838;12.094;2022-11-20T03:05:31;-3276.10;43.50
18287;DHT22;9269;50.838;12.094;2022-11-20T03:07:59;-3276.30;43.60
18287;DHT22;9269;50.838;12.094;2022-11-20T03:10:28;-3276.30;43.40
18287;DHT22;9269;50.838;12.094;2022-11-20T03:12:56;-3276.20;43.60
18287;DHT22;9269;50.838;12.094;2022-11-20T03:15:26;-3276.10;43.70
18287;DHT22;9269;50.838;12.094;2022-11-20T03:17:55;-3276.40;43.70
18287;DHT22;9269;50.838;12.094;2022-11-20T03:20:24;-3276.10;43.40
18287;DHT22;9269;50.838;12.094;2022-11-20T03:22:53;-3276.40;43.30
18287;DHT22;9269;50.838;12.094;2022-11-20T03:25:22;-3276.30;43.70
18287;DHT22;9269;50.838;12.094;2022-11-20T03:27:50;-3275.90;43.70
18287;DHT22;9269;50.838;12.094;2022-11-20T03:30:19;-3276.00;43.60
18287;DHT22;9269;50.838;12.094;2022-11-20T03:32:54;-3276.10;43.80
18287;DHT22;9269;50.838;12.094;2022-11-20T03:35:23;-3276.10;43.90
18287;DHT22;9269;50.838;12.094;2022-11-20T03:37:51;-3276.10;43.60
18287;DHT22;9269;50.838;12.094;2022-11-20T03:40:20;-3276.20;43.70
18287;DHT22;9269;50.838;12.094;2022-11-20T03:42:48;-3275.90;43.70
18287;DHT22;9269;50.838;12.094;2022-11-20T03:45:17;-3276.10;43.50
18287;DHT22;9269;50.838;12.094;2022-11-20T03:47:46;-3276.10;43.50
18287;DHT22;9269;50.838;12.094;2022-11-20T03:50:16;-3275.90;43.70
18287;DHT22;9269;50.838;12.094;2022-11-20T03:52:45;-3275.90;43.50
18287;DHT22;9269;50.838;12.094;2022-11-20T03:55:13;-3275.90;43.40
18287;DHT22;9269;50.838;12.094;2022-11-20T03:57:42;-3275.70;43.40
18287;DHT22;9269;50.838;12.094;2022-11-20T04:00:12;-3276.00;43.60
18287;DHT22;9269;50.838;12.094;2022-11-20T04:02:41;-3275.80;43.50
18287;DHT22;9269;50.838;12.094;2022-11-20T04:05:09;-3276.10;43.20
18287;DHT22;9269;50.838;12.094;2022-11-20T04:07:39;-3275.90;43.70
18287;DHT22;9269;50.838;12.094;2022-11-20T04:10:08;-3276.00;43.30
18287;DHT22;9269;50.838;12.094;2022-11-20T04:12:36;-3276.00;43.40
18287;DHT22;9269;50.838;12.094;2022-11-20T04:15:05;-3276.00;43.30
18287;DHT22;9269;50.838;12.094;2022-11-20T04:17:34;-3276.00;43.50
18287;DHT22;9269;50.838;12.094;2022-11-20T04:20:04;-3275.90;43.30
18287;DHT22;9269;50.838;12.094;2022-11-20T04:22:32;-3275.90;43.40
18287;DHT22;9269;50.838;12.094;2022-11-20T04:25:03;-3275.90;43.80
18287;DHT22;9269;50.838;12.094;2022-11-20T04:27:31;-3276.00;43.60
18287;DHT22;9269;50.838;12.094;2022-11-20T04:30:00;-3275.90;43.90
18287;DHT22;9269;50.838;12.094;2022-11-20T04:32:28;-3276.00;43.70
18287;DHT22;9269;50.838;12.094;2022-11-20T04:34:57;-3275.80;44.10
18287;DHT22;9269;50.838;12.094;2022-11-20T04:37:25;-3275.80;44.30
18287;DHT22;9269;50.838;12.094;2022-11-20T04:39:53;-3275.90;43.80
18287;DHT22;9269;50.838;12.094;2022-11-20T04:42:23;-3276.00;44.10
18287;DHT22;9269;50.838;12.094;2022-11-20T04:44:58;-3275.80;44.10
18287;DHT22;9269;50.838;12.094;2022-11-20T04:47:26;-3275.80;44.10
18287;DHT22;9269;50.838;12.094;2022-11-20T04:49:55;-3275.90;44.00
18287;DHT22;9269;50.838;12.094;2022-11-20T04:52:23;-3275.80;44.20
18287;DHT22;9269;50.838;12.094;2022-11-20T04:54:52;-3275.70;44.30
18287;DHT22;9269;50.838;12.094;2022-11-20T04:57:21;-3275.90;44.40
18287;DHT22;9269;50.838;12.094;2022-11-20T04:59:50;-3275.80;43.90
18287;DHT22;9269;50.838;12.094;2022-11-20T05:02:19;-3275.80;43.80
18287;DHT22;9269;50.838;12.094;2022-11-20T05:04:48;-3275.90;43.80
18287;DHT22;9269;50.838;12.094;2022-11-20T05:07:17;-3275.70;43.90
18287;DHT22;9269;50.838;12.094;2022-11-20T05:09:46;-3275.80;44.00
18287;DHT22;9269;50.838;12.094;2022-11-20T05:12:14;-3275.80;43.90
18287;DHT22;9269;50.838;12.094;2022-11-20T05:14:42;-3275.80;43.80
18287;DHT22;9269;50.838;12.094;2022-11-20T05:17:12;-3275.70;44.10
18287;DHT22;9269;50.838;12.094;2022-11-20T05:19:41;-3275.70;43.60
18287;DHT22;9269;50.838;12.094;2022-11-20T05:22:09;-3276.00;43.90
18287;DHT22;9269;50.838;12.094;2022-11-20T05:24:38;-3275.70;44.20
18287;DHT22;9269;50.838;12.094;2022-11-20T05:27:06;-3275.70;44.40
18287;DHT22;9269;50.838;12.094;2022-11-20T05:29:35;-3275.80;44.50
18287;DHT22;9269;50.838;12.094;2022-11-20T05:32:05;-3275.70;44.60
18287;DHT22;9269;50.838;12.094;2022-11-20T05:34:37;-3275.70;44.30
18287;DHT22;9269;50.838;12.094;2022-11-20T05:37:06;-3275.60;44.40
18287;DHT22;9269;50.838;12.094;2022-11-20T05:39:34;-3275.70;44.20
18287;DHT22;9269;50.838;12.094;2022-11-20T05:42:03;-3275.70;44.00
18287;DHT22;9269;50.838;12.094;2022-11-20T05:44:49;-3275.70;44.30
18287;DHT22;9269;50.838;12.094;2022-11-20T05:47:18;0.20;0.20
18287;DHT22;9269;50.838;12.094;2022-11-20T05:49:49;0.20;0.20
18287;DHT22;9269;50.838;12.094;2022-11-20T05:52:18;0.20;0.20
18287;DHT22;9269;50.838;12.094;2022-11-20T05:54:46;0.20;0.20
18287;DHT22;9269;50.838;12.094;2022-11-20T05:57:15;0.20;0.20
18287;DHT22;9269;50.838;12.094;2022-11-20T05:59:44;0.20;0.20
18287;DHT22;9269;50.838;12.094;2022-11-20T06:02:13;0.20;0.20
18287;DHT22;9269;50.838;12.094;2022-11-20T06:04:41;0.20;0.20
18287;DHT22;9269;50.838;12.094;2022-11-20T06:07:11;0.20;0.20
18287;DHT22;9269;50.838;12.094;2022-11-20T06:09:40;0.20;0.20
18287;DHT22;9269;50.838;12.094;2022-11-20T06:12:08;0.20;0.20
18287;DHT22;9269;50.838;12.094;2022-11-20T06:14:37;0.20;0.20
18287;DHT22;9269;50.838;12.094;2022-11-20T06:17:05;0.20;0.20
18287;DHT22;9269;50.838;12.094;2022-11-20T06:19:34;0.20;0.20
18287;DHT22;9269;50.838;12.094;2022-11-20T06:22:03;0.20;0.20
18287;DHT22;9269;50.838;12.094;2022-11-20T06:24:33;0.20;0.20
18287;DHT22;9269;50.838;12.094;2022-11-20T06:27:02;0.20;0.20
18287;DHT22;9269;50.838;12.094;2022-11-20T06:29:30;0.20;0.20
18287;DHT22;9269;50.838;12.094;2022-11-20T06:32:00;0.20;0.20
18287;DHT22;9269;50.838;12.094;2022-11-20T06:34:29;0.20;0.20
18287;DHT22;9269;50.838;12.094;2022-11-20T06:36:57;0.20;0.20
18287;DHT22;9269;50.838;12.094;2022-11-20T06:39:26;0.20;0.20
18287;DHT22;9269;50.838;12.094;2022-11-20T06:41:56;0.20;0.20
18287;DHT22;9269;50.838;12.094;2022-11-20T06:44:25;0.20;0.20
18287;DHT22;9269;50.838;12.094;2022-11-20T06:46:54;0.20;0.20
18287;DHT22;9269;50.838;12.094;2022-11-20T06:49:22;0.20;0.20
18287;DHT22;9269;50.838;12.094;2022-11-20T06:51:51;0.20;0.20
18287;DHT22;9269;50.838;12.094;2022-11-20T06:54:19;0.20;0.20
18287;DHT22;9269;50.838;12.094;2022-11-20T06:56:48;0.20;0.20
18287;DHT22;9269;50.838;12.094;2022-11-20T06:59:18;0.20;0.20
18287;DHT22;9269;50.838;12.094;2022-11-20T07:01:48;0.20;0.20
18287;DHT22;9269;50.838;12.094;2022-11-20T07:04:16;0.20;0.20
18287;DHT22;9269;50.838;12.094;2022-11-20T07:06:45;0.20;0.20
18287;DHT22;9269;50.838;12.094;2022-11-20T07:09:14;0.20;0.20
18287;DHT22;9269;50.838;12.094;2022-11-20T07:11:43;0.20;0.20
18287;DHT22;9269;50.838;12.094;2022-11-20T07:14:11;0.20;0.20
18287;DHT22;9269;50.838;12.094;2022-11-20T07:16:42;0.20;0.20
18287;DHT22;9269;50.838;12.094;2022-11-20T07:19:10;0.20;0.20
18287;DHT22;9269;50.838;12.094;2022-11-20T07:21:39;0.20;0.20
18287;DHT22;9269;50.838;12.094;2022-11-20T07:24:07;0.20;0.20
18287;DHT22;9269;50.838;12.094;2022-11-20T07:26:35;0.20;0.20
18287;DHT22;9269;50.838;12.094;2022-11-20T07:29:04;0.20;0.20
18287;DHT22;9269;50.838;12.094;2022-11-20T07:31:32;0.20;0.20
18287;DHT22;9269;50.838;12.094;2022-11-20T07:34:02;0.20;0.20
18287;DHT22;9269;50.838;12.094;2022-11-20T07:36:31;0.20;0.20
18287;DHT22;9269;50.838;12.094;2022-11-20T07:39:00;0.20;0.20
18287;DHT22;9269;50.838;12.094;2022-11-20T07:41:28;0.20;0.20
18287;DHT22;9269;50.838;12.094;2022-11-20T07:43:57;0.20;0.20
18287;DHT22;9269;50.838;12.094;2022-11-20T07:46:25;0.20;0.20
18287;DHT22;9269;50.838;12.094;2022-11-20T07:48:54;0.20;0.20
18287;DHT22;9269;50.838;12.094;2022-11-20T07:51:25;0.20;0.20
18287;DHT22;9269;50.838;12.094;2022-11-20T07:53:54;0.20;0.20
18287;DHT22;9269;50.838;12.094;2022-11-20T07:56:23;0.20;0.20
18287;DHT22;9269;50.838;12.094;2022-11-20T07:58:51;0.20;0.20
18287;DHT22;9269;50.838;12.094;2022-11-20T08:01:20;0.20;0.20
18287;DHT22;9269;50.838;12.094;2022-11-20T08:03:48;0.20;0.20
18287;DHT22;9269;50.838;12.094;2022-11-20T08:06:17;0.20;0.20
18287;DHT22;9269;50.838;12.094;2022-11-20T08:08:48;0.20;0.20
18287;DHT22;9269;50.838;12.094;2022-11-20T08:11:21;0.20;0.20
18287;DHT22;9269;50.838;12.094;2022-11-20T08:14:09;0.20;0.20
18287;DHT22;9269;50.838;12.094;2022-11-20T08:16:42;0.20;0.20
18287;DHT22;9269;50.838;12.094;2022-11-20T08:19:13;0.20;0.20
18287;DHT22;9269;50.838;12.094;2022-11-20T08:21:43;0.20;0.20
18287;DHT22;9269;50.838;12.094;2022-11-20T08:24:13;0.20;0.20
18287;DHT22;9269;50.838;12.094;2022-11-20T08:26:42;0.20;0.20
18287;DHT22;9269;50.838;12.094;2022-11-20T08:29:13;0.20;0.20
18287;DHT22;9269;50.838;12.094;2022-11-20T08:31:45;0.20;0.20
18287;DHT22;9269;50.838;12.094;2022-11-20T08:34:16;0.20;0.20
18287;DHT22;9269;50.838;12.094;2022-11-20T08:36:50;0.20;0.20
18287;DHT22;9269;50.838;12.094;2022-11-20T08:39:27;0.20;0.20
18287;DHT22;9269;50.838;12.094;2022-11-20T08:41:57;0.20;0.20
18287;DHT22;9269;50.838;12.094;2022-11-20T08:44:26;0.20;0.20
18287;DHT22;9269;50.838;12.094;2022-11-20T08:46:55;0.20;0.20
18287;DHT22;9269;50.838;12.094;2022-11-20T08:49:24;0.20;0.20
18287;DHT22;9269;50.838;12.094;2022-11-20T08:51:53;0.20;0.20
18287;DHT22;9269;50.838;12.094;2022-11-20T08:54:22;0.20;0.20
18287;DHT22;9269;50.838;12.094;2022-11-20T08:56:52;0.20;0.20
18287;DHT22;9269;50.838;12.094;2022-11-20T08:59:21;0.20;0.20
18287;DHT22;9269;50.838;12.094;2022-11-20T09:02:13;0.20;0.20
18287;DHT22;9269;50.838;12.094;2022-11-20T09:04:42;0.20;0.20
18287;DHT22;9269;50.838;12.094;2022-11-20T09:07:11;0.20;0.20
18287;DHT22;9269;50.838;12.094;2022-11-20T09:09:40;0.20;0.20
18287;DHT22;9269;50.838;12.094;2022-11-20T09:12:10;0.20;0.20
18287;DHT22;9269;50.838;12.094;2022-11-20T09:14:39;0.20;0.20
18287;DHT22;9269;50.838;12.094;2022-11-20T09:17:10;0.20;0.20
18287;DHT22;9269;50.838;12.094;2022-11-20T09:19:41;0.20;0.20
18287;DHT22;9269;50.838;12.094;2022-11-20T09:22:11;0.20;0.20
18287;DHT22;9269;50.838;12.094;2022-11-20T09:24:43;0.20;0.20
18287;DHT22;9269;50.838;12.094;2022-11-20T09:27:12;0.20;0.20
18287;DHT22;9269;50.838;12.094;2022-11-20T09:29:41;0.20;0.20
18287;DHT22;9269;50.838;12.094;2022-11-20T09:32:10;0.20;0.20
18287;DHT22;9269;50.838;12.094;2022-11-20T09:34:39;0.20;0.20
18287;DHT22;9269;50.838;12.094;2022-11-20T09:37:08;0.20;0.20
18287;DHT22;9269;50.838;12.094;2022-11-20T09:39:37;0.20;0.20
18287;DHT22;9269;50.838;12.094;2022-11-20T09:42:29;0.20;0.20
18287;DHT22;9269;50.838;12.094;2022-11-20T09:45:16;0.20;0.20
18287;DHT22;9269;50.838;12.094;2022-11-20T09:48:01;0.20;0.20
18287;DHT22;9269;50.838;12.094;2022-11-20T09:50:35;0.20;0.20
18287;DHT22;9269;50.838;12.094;2022-11-20T09:53:13;0.20;0.20
18287;DHT22;9269;50.838;12.094;2022-11-20T09:55:43;0.20;0.20
18287;DHT22;9269;50.838;12.094;2022-11-20T09:58:23;0.20;0.20
18287;DHT22;9269;50.838;12.094;2022-11-20T10:00:54;0.20;0.20
18287;DHT22;9269;50.838;12.094;2022-11-20T10:03:36;0.20;0.20
18287;DHT22;9269;50.838;12.094;2022-11-20T10:06:12;0.20;0.20
18287;DHT22;9269;50.838;12.094;2022-11-20T10:08:45;0.20;0.20
18287;DHT22;9269;50.838;12.094;2022-11-20T10:11:23;0.20;0.20
18287;DHT22;9269;50.838;12.094;2022-11-20T10:14:04;0.20;0.20
18287;DHT22;9269;50.838;12.094;2022-11-20T10:16:44;0.20;0.20
18287;DHT22;9269;50.838;12.094;2022-11-20T10:19:29;0.20;0.20
18287;DHT22;9269;50.838;12.094;2022-11-20T10:22:06;0.20;0.20
18287;DHT22;9269;50.838;12.094;2022-11-20T10:24:44;0.20;0.20
18287;DHT22;9269;50.838;12.094;2022-11-20T10:27:41;0.20;0.20
18287;DHT22;9269;50.838;12.094;2022-11-20T10:30:16;0.20;0.20
18287;DHT22;9269;50.838;12.094;2022-11-20T10:32:47;0.20;0.20
18287;DHT22;9269;50.838;12.094;2022-11-20T10:35:23;0.20;0.20
18287;DHT22;9269;50.838;12.094;2022-11-20T10:37:57;0.20;0.20
18287;DHT22;9269;50.838;12.094;2022-11-20T10:40:32;0.20;0.20
18287;DHT22;9269;50.838;12.094;2022-11-20T10:43:08;0.20;0.20
18287;DHT22;9269;50.838;12.094;2022-11-20T10:45:52;0.20;0.20
18287;DHT22;9269;50.838;12.094;2022-11-20T10:48:27;0.20;0.20
18287;DHT22;9269;50.838;12.094;2022-11-20T10:51:10;2.30;47.40
18287;DHT22;9269;50.838;12.094;2022-11-20T10:53:49;2.10;47.30
18287;DHT22;9269;50.838;12.094;2022-11-20T10:56:22;2.30;47.50
18287;DHT22;9269;50.838;12.094;2022-11-20T10:59:05;2.50;47.50
18287;DHT22;9269;50.838;12.094;2022-11-20T11:01:42;2.40;47.50
18287;DHT22;9269;50.838;12.094;2022-11-20T11:04:28;2.30;47.60
18287;DHT22;9269;50.838;12.094;2022-11-20T11:07:05;2.50;47.60
18287;DHT22;9269;50.838;12.094;2022-11-20T11:09:39;2.50;47.80
18287;DHT22;9269;50.838;12.094;2022-11-20T11:12:10;2.50;47.70
18287;DHT22;9269;50.838;12.094;2022-11-20T11:14:46;2.40;47.70
18287;DHT22;9269;50.838;12.094;2022-11-20T11:17:28;2.50;47.70
18287;DHT22;9269;50.838;12.094;2022-11-20T11:19:59;2.60;47.80
18287;DHT22;9269;50.838;12.094;2022-11-20T11:22:31;2.50;47.80
18287;DHT22;9269;50.838;12.094;2022-11-20T11:25:00;2.70;47.60
18287;DHT22;9269;50.838;12.094;2022-11-20T11:27:30;2.60;47.80
18287;DHT22;9269;50.838;12.094;2022-11-20T11:30:11;2.80;47.80
18287;DHT22;9269;50.838;12.094;2022-11-20T11:32:43;2.70;47.70
18287;DHT22;9269;50.838;12.094;2022-11-20T11:35:23;2.80;47.60
18287;DHT22;9269;50.838;12.094;2022-11-20T11:37:54;2.70;48.00
18287;DHT22;9269;50.838;12.094;2022-11-20T11:40:33;2.60;48.50
18287;DHT22;9269;50.838;12.094;2022-11-20T11:43:06;2.70;48.20
18287;DHT22;9269;50.838;12.094;2022-11-20T11:46:05;2.70;48.20
18287;DHT22;9269;50.838;12.094;2022-11-20T11:48:42;2.90;48.30
18287;DHT22;9269;50.838;12.094;2022-11-20T11:51:20;2.90;48.50
18287;DHT22;9269;50.838;12.094;2022-11-20T11:53:50;2.80;48.10
18287;DHT22;9269;50.838;12.094;2022-11-20T11:56:23;2.80;48.50
18287;DHT22;9269;50.838;12.094;2022-11-20T11:58:53;2.80;48.10
18287;DHT22;9269;50.838;12.094;2022-11-20T12:01:29;2.60;48.40
18287;DHT22;9269;50.838;12.094;2022-11-20T12:04:08;2.90;48.60
18287;DHT22;9269;50.838;12.094;2022-11-20T12:06:44;3.00;48.40
18287;DHT22;9269;50.838;12.094;2022-11-20T12:09:14;3.00;48.50
18287;DHT22;9269;50.838;12.094;2022-11-20T12:11:52;3.10;48.60
18287;DHT22;9269;50.838;12.094;2022-11-20T12:14:30;3.20;48.40
18287;DHT22;9269;50.838;12.094;2022-11-20T12:17:03;3.00;48.60
18287;DHT22;9269;50.838;12.094;2022-11-20T12:19:34;3.00;48.70
18287;DHT22;9269;50.838;12.094;2022-11-20T12:22:11;3.00;48.90
18287;DHT22;9269;50.838;12.094;2022-11-20T12:24:52;2.90;49.00
18287;DHT22;9269;50.838;12.094;2022-11-20T12:30:22;3.10;49.00
18287;DHT22;9269;50.838;12.094;2022-11-20T12:33:16;3.50;48.80
18287;DHT22;9269;50.838;12.094;2022-11-20T12:39:17;3.40;49.00
18287;DHT22;9269;50.838;12.094;2022-11-20T12:45:21;3.20;48.80
18287;DHT22;9269;50.838;12.094;2022-11-20T12:48:08;3.40;48.90
18287;DHT22;9269;50.838;12.094;2022-11-20T12:50:49;3.30;48.90
18287;DHT22;9269;50.838;12.094;2022-11-20T12:53:49;3.50;49.10
18287;DHT22;9269;50.838;12.094;2022-11-20T12:56:31;3.40;49.10
18287;DHT22;9269;50.838;12.094;2022-11-20T12:59:18;3.50;49.10
18287;DHT22;9269;50.838;12.094;2022-11-20T13:01:52;3.60;49.00
18287;DHT22;9269;50.838;12.094;2022-11-20T13:04:39;3.60;49.30
18287;DHT22;9269;50.838;12.094;2022-11-20T13:07:13;3.70;49.30
18287;DHT22;9269;50.838;12.094;2022-11-20T13:09:48;3.60;49.30
18287;DHT22;9269;50.838;12.094;2022-11-20T13:12:24;3.70;49.30
18287;DHT22;9269;50.838;12.094;2022-11-20T13:15:00;3.80;49.80
18287;DHT22;9269;50.838;12.094;2022-11-20T13:17:38;3.80;49.40
18287;DHT22;9269;50.838;12.094;2022-11-20T13:20:16;3.80;49.50
18287;DHT22;9269;50.838;12.094;2022-11-20T13:22:46;3.70;49.50
18287;DHT22;9269;50.838;12.094;2022-11-20T13:25:27;3.70;49.70
18287;DHT22;9269;50.838;12.094;2022-11-20T13:27:57;3.70;49.50
18287;DHT22;9269;50.838;12.094;2022-11-20T13:30:27;3.70;49.40
18287;DHT22;9269;50.838;12.094;2022-11-20T13:32:57;3.90;49.70
18287;DHT22;9269;50.838;12.094;2022-11-20T13:35:30;3.90;49.30
18287;DHT22;9269;50.838;12.094;2022-11-20T13:38:01;3.80;49.00
18287;DHT22;9269;50.838;12.094;2022-11-20T13:40:32;3.80;49.20
18287;DHT22;9269;50.838;12.094;2022-11-20T13:43:07;3.80;49.10
18287;DHT22;9269;50.838;12.094;2022-11-20T13:45:36;3.90;49.50
18287;DHT22;9269;50.838;12.094;2022-11-20T13:48:19;3.90;49.50
18287;DHT22;9269;50.838;12.094;2022-11-20T13:50:58;3.90;49.50
18287;DHT22;9269;50.838;12.094;2022-11-20T13:53:57;3.90;49.20
18287;DHT22;9269;50.838;12.094;2022-11-20T13:56:39;3.70;49.50
18287;DHT22;9269;50.838;12.094;2022-11-20T13:59:24;3.70;49.60
18287;DHT22;9269;50.838;12.094;2022-11-20T14:01:56;3.90;49.80
18287;DHT22;9269;50.838;12.094;2022-11-20T14:04:28;4.00;49.70
18287;DHT22;9269;50.838;12.094;2022-11-20T14:06:57;3.80;49.90
18287;DHT22;9269;50.838;12.094;2022-11-20T14:09:28;3.70;49.80
18287;DHT22;9269;50.838;12.094;2022-11-20T14:11:58;3.90;49.70
18287;DHT22;9269;50.838;12.094;2022-11-20T14:14:28;4.00;49.70
18287;DHT22;9269;50.838;12.094;2022-11-20T14:17:09;3.80;49.80
18287;DHT22;9269;50.838;12.094;2022-11-20T14:19:47;3.80;49.80
18287;DHT22;9269;50.838;12.094;2022-11-20T14:22:19;3.80;49.80
18287;DHT22;9269;50.838;12.094;2022-11-20T14:25:05;3.60;50.20
18287;DHT22;9269;50.838;12.094;2022-11-20T14:27:38;3.50;50.00
18287;DHT22;9269;50.838;12.094;2022-11-20T14:30:14;3.70;50.20
18287;DHT22;9269;50.838;12.094;2022-11-20T14:32:44;3.40;50.20
18287;DHT22;9269;50.838;12.094;2022-11-20T14:35:16;3.50;50.30
18287;DHT22;9269;50.838;12.094;2022-11-20T14:37:46;3.40;50.40
18287;DHT22;9269;50.838;12.094;2022-11-20T14:40:25;3.20;50.30
18287;DHT22;9269;50.838;12.094;2022-11-20T14:43:20;3.20;50.30
18287;DHT22;9269;50.838;12.094;2022-11-20T14:45:59;3.20;50.60
18287;DHT22;9269;50.838;12.094;2022-11-20T14:48:31;3.10;50.30
18287;DHT22;9269;50.838;12.094;2022-11-20T14:51:02;3.40;50.30
18287;DHT22;9269;50.838;12.094;2022-11-20T14:53:30;3.20;50.50
18287;DHT22;9269;50.838;12.094;2022-11-20T14:56:01;3.10;50.50
18287;DHT22;9269;50.838;12.094;2022-11-20T14:58:33;3.20;50.40
18287;DHT22;9269;50.838;12.094;2022-11-20T15:01:03;3.10;50.50
18287;DHT22;9269;50.838;12.094;2022-11-20T15:03:34;3.00;50.60
18287;DHT22;9269;50.838;12.094;2022-11-20T15:06:03;3.10;50.80
18287;DHT22;9269;50.838;12.094;2022-11-20T15:08:31;3.00;50.60
18287;DHT22;9269;50.838;12.094;2022-11-20T15:11:01;3.00;50.60
18287;DHT22;9269;50.838;12.094;2022-11-20T15:13:33;2.90;50.60
18287;DHT22;9269;50.838;12.094;2022-11-20T15:16:03;2.70;50.60
18287;DHT22;9269;50.838;12.094;2022-11-20T15:18:37;2.90;50.50
18287;DHT22;9269;50.838;12.094;2022-11-20T15:21:11;2.90;50.90
18287;DHT22;9269;50.838;12.094;2022-11-20T15:23:40;2.70;50.50
18287;DHT22;9269;50.838;12.094;2022-11-20T15:26:10;2.70;50.60
18287;DHT22;9269;50.838;12.094;2022-11-20T15:28:49;2.60;50.40
18287;DHT22;9269;50.838;12.094;2022-11-20T15:31:20;2.40;50.10
18287;DHT22;9269;50.838;12.094;2022-11-20T15:33:49;2.50;50.40
18287;DHT22;9269;50.838;12.094;2022-11-20T15:36:18;2.60;50.20
18287;DHT22;9269;50.838;12.094;2022-11-20T15:38:46;2.50;50.20
18287;DHT22;9269;50.838;12.094;2022-11-20T15:41:15;2.50;50.40
18287;DHT22;9269;50.838;12.094;2022-11-20T15:43:44;2.30;50.20
18287;DHT22;9269;50.838;12.094;2022-11-20T15:46:16;2.30;50.30
18287;DHT22;9269;50.838;12.094;2022-11-20T15:48:51;2.30;50.20
18287;DHT22;9269;50.838;12.094;2022-11-20T15:51:26;2.30;50.20
18287;DHT22;9269;50.838;12.094;2022-11-20T15:53:55;2.30;50.00
18287;DHT22;9269;50.838;12.094;2022-11-20T15:56:26;2.30;50.30
18287;DHT22;9269;50.838;12.094;2022-11-20T15:58:54;2.10;50.30
18287;DHT22;9269;50.838;12.094;2022-11-20T16:01:26;2.20;50.30
18287;DHT22;9269;50.838;12.094;2022-11-20T16:03:55;2.00;50.20
18287;DHT22;9269;50.838;12.094;2022-11-20T16:06:25;2.10;50.70
18287;DHT22;9269;50.838;12.094;2022-11-20T16:08:55;2.20;50.50
18287;DHT22;9269;50.838;12.094;2022-11-20T16:11:25;1.90;50.90
18287;DHT22;9269;50.838;12.094;2022-11-20T16:13:57;1.90;50.40